createdAt,value
2023-05-19T00:00:58.333Z,15.29
2023-05-19T00:02:01.287Z,15.25
2023-05-19T00:03:05.484Z,15.25
2023-05-19T00:04:08.686Z,15.24
2023-05-19T00:05:15.600Z,15.12
2023-05-19T00:06:19.835Z,15.08
2023-05-19T00:07:29.345Z,15.09
2023-05-19T00:08:33.027Z,15.05
2023-05-19T00:09:35.928Z,15.04
2023-05-19T00:10:39.613Z,14.96
2023-05-19T00:11:42.534Z,14.92
2023-05-19T00:12:46.021Z,14.89
2023-05-19T00:13:50.214Z,14.80
2023-05-19T00:14:53.072Z,14.75
2023-05-19T00:15:56.066Z,14.77
2023-05-19T00:16:59.080Z,14.72
2023-05-19T00:18:02.585Z,14.67
2023-05-19T00:19:06.286Z,14.64
2023-05-19T00:20:09.803Z,14.64
2023-05-19T00:21:12.305Z,14.64
2023-05-19T00:22:15.610Z,14.61
2023-05-19T00:23:18.271Z,14.56
2023-05-19T00:24:21.005Z,14.51
2023-05-19T00:25:23.762Z,14.45
2023-05-19T00:26:27.724Z,14.43
2023-05-19T00:27:30.345Z,14.42
2023-05-19T00:28:33.069Z,14.40
2023-05-19T00:29:35.848Z,14.39
2023-05-19T00:30:38.491Z,14.34
2023-05-19T00:31:41.161Z,14.30
2023-05-19T00:32:43.873Z,14.28
2023-05-19T00:33:46.742Z,14.25
2023-05-19T00:34:50.052Z,14.14
2023-05-19T00:35:52.708Z,14.09
2023-05-19T00:36:55.353Z,14.07
2023-05-19T00:37:58.003Z,14.05
2023-05-19T00:39:00.700Z,14.05
2023-05-19T00:40:03.424Z,14.02
2023-05-19T00:41:07.396Z,13.99
2023-05-19T00:42:10.449Z,13.95
2023-05-19T00:43:13.397Z,13.93
2023-05-19T00:44:16.202Z,13.91
2023-05-19T00:45:19.000Z,13.88
2023-05-19T00:46:23.502Z,13.83
2023-05-19T00:47:26.210Z,13.80
2023-05-19T00:48:29.418Z,13.77
2023-05-19T00:49:32.050Z,13.74
2023-05-19T00:50:35.019Z,13.69
2023-05-19T00:51:37.962Z,13.65
2023-05-19T00:52:40.655Z,13.60
2023-05-19T00:53:48.894Z,13.55
2023-05-19T00:54:53.101Z,13.52
2023-05-19T00:55:55.847Z,13.48
2023-05-19T00:57:00.048Z,13.39
2023-05-19T00:58:02.833Z,13.32
2023-05-19T00:59:06.262Z,13.30
2023-05-19T01:00:09.604Z,13.27
2023-05-19T01:01:17.666Z,13.21
2023-05-19T01:02:21.320Z,13.21
2023-05-19T01:03:24.428Z,13.20
2023-05-19T01:04:27.474Z,13.17
2023-05-19T01:05:30.203Z,13.14
2023-05-19T01:06:33.164Z,13.10
2023-05-19T01:07:37.381Z,13.03
2023-05-19T01:08:40.756Z,12.96
2023-05-19T01:09:43.657Z,12.90
2023-05-19T01:10:46.333Z,12.91
2023-05-19T01:11:49.909Z,12.94
2023-05-19T01:12:52.319Z,12.87
2023-05-19T01:13:55.395Z,12.79
2023-05-19T01:15:00.280Z,12.74
2023-05-19T01:16:13.865Z,12.67
2023-05-19T01:17:25.431Z,12.65
2023-05-19T01:19:02.243Z,12.66
2023-05-19T01:20:18.888Z,12.51
2023-05-19T01:21:53.883Z,12.37
2023-05-19T01:23:15.508Z,12.37
2023-05-19T01:24:42.711Z,12.45
2023-05-19T01:25:54.100Z,12.46
2023-05-19T01:27:24.102Z,12.45
2023-05-19T01:28:58.410Z,12.37
2023-05-19T01:30:26.058Z,12.32
2023-05-19T01:31:29.672Z,12.28
2023-05-19T01:32:35.400Z,12.20
2023-05-19T01:33:40.410Z,12.16
2023-05-19T01:34:44.929Z,12.02
2023-05-19T01:35:49.532Z,11.99
2023-05-19T01:36:54.677Z,11.91
2023-05-19T01:38:00.331Z,11.79
2023-05-19T01:39:03.772Z,11.73
2023-05-19T01:40:08.555Z,11.65
2023-05-19T01:41:12.929Z,11.61
2023-05-19T01:42:17.345Z,11.63
2023-05-19T01:43:23.011Z,11.61
2023-05-19T01:44:26.093Z,11.59
2023-05-19T01:45:30.660Z,11.61
2023-05-19T01:46:33.636Z,11.61
2023-05-19T01:47:41.024Z,11.55
2023-05-19T01:48:45.333Z,11.54
2023-05-19T01:49:48.055Z,11.48
2023-05-19T01:50:50.974Z,11.48
2023-05-19T01:51:55.197Z,11.44
2023-05-19T01:52:58.210Z,11.40
2023-05-19T01:54:01.080Z,11.32
2023-05-19T01:55:03.875Z,11.33
2023-05-19T01:56:07.577Z,11.26
2023-05-19T01:57:32.895Z,11.21
2023-05-19T01:59:10.211Z,11.20
2023-05-19T02:00:43.547Z,11.20
2023-05-19T02:01:54.552Z,11.20
2023-05-19T02:02:57.224Z,11.15
2023-05-19T02:04:16.998Z,11.06
2023-05-19T02:05:32.239Z,11.05
2023-05-19T02:06:46.855Z,10.97
2023-05-19T02:08:03.235Z,11.01
2023-05-19T02:09:26.261Z,11.03
2023-05-19T02:10:33.944Z,11.01
2023-05-19T02:11:40.849Z,10.95
2023-05-19T02:12:45.350Z,10.92
2023-05-19T02:13:51.924Z,10.92
2023-05-19T02:15:19.539Z,10.92
2023-05-19T02:16:27.984Z,10.86
2023-05-19T02:17:36.765Z,10.78
2023-05-19T02:18:45.879Z,10.71
2023-05-19T02:19:48.756Z,10.67
2023-05-19T02:20:51.588Z,10.66
2023-05-19T02:21:54.323Z,10.63
2023-05-19T02:22:57.304Z,10.61
2023-05-19T02:24:00.011Z,10.56
2023-05-19T02:25:02.929Z,10.56
2023-05-19T02:26:05.889Z,10.50
2023-05-19T02:27:08.544Z,10.48
2023-05-19T02:28:11.199Z,10.46
2023-05-19T02:29:13.857Z,10.38
2023-05-19T02:30:16.672Z,10.33
2023-05-19T02:31:19.384Z,10.21
2023-05-19T02:32:22.487Z,10.26
2023-05-19T02:33:26.654Z,10.25
2023-05-19T02:34:29.347Z,10.22
2023-05-19T02:35:32.040Z,10.28
2023-05-19T02:36:37.128Z,10.31
2023-05-19T02:37:40.259Z,10.26
2023-05-19T02:38:42.917Z,10.22
2023-05-19T02:39:45.838Z,10.17
2023-05-19T02:40:48.516Z,10.12
2023-05-19T02:41:51.269Z,10.07
2023-05-19T02:42:54.264Z,10.06
2023-05-19T02:43:57.130Z,10.00
2023-05-19T02:45:01.165Z,9.90
2023-05-19T02:46:03.920Z,9.83
2023-05-19T02:47:06.769Z,9.72
2023-05-19T02:48:09.493Z,9.61
2023-05-19T02:49:12.240Z,9.58
2023-05-19T02:50:14.939Z,9.42
2023-05-19T02:51:17.652Z,9.50
2023-05-19T02:52:20.340Z,9.60
2023-05-19T02:53:22.974Z,9.68
2023-05-19T02:54:25.671Z,9.72
2023-05-19T02:55:28.347Z,9.70
2023-05-19T02:56:31.060Z,9.67
2023-05-19T02:57:35.616Z,9.54
2023-05-19T02:58:38.671Z,9.51
2023-05-19T02:59:41.612Z,9.45
2023-05-19T03:00:45.714Z,9.46
2023-05-19T03:01:48.538Z,9.40
2023-05-19T03:02:53.467Z,9.35
2023-05-19T03:03:56.276Z,9.33
2023-05-19T03:04:59.000Z,9.32
2023-05-19T03:06:02.434Z,9.33
2023-05-19T03:07:06.745Z,9.33
2023-05-19T03:08:09.838Z,9.26
2023-05-19T03:09:12.493Z,9.21
2023-05-19T03:10:15.160Z,9.17
2023-05-19T03:11:18.249Z,9.13
2023-05-19T03:12:21.304Z,9.08
2023-05-19T03:13:23.950Z,9.04
2023-05-19T03:14:26.582Z,9.00
2023-05-19T03:15:29.246Z,8.99
2023-05-19T03:16:32.082Z,8.96
2023-05-19T03:17:34.991Z,8.96
2023-05-19T03:18:37.895Z,8.94
2023-05-19T03:19:40.640Z,8.85
2023-05-19T03:20:45.143Z,8.80
2023-05-19T03:21:48.107Z,8.76
2023-05-19T03:22:51.193Z,8.75
2023-05-19T03:23:55.202Z,8.78
2023-05-19T03:24:59.036Z,8.86
2023-05-19T03:26:01.857Z,8.87
2023-05-19T03:27:08.327Z,8.85
2023-05-19T03:28:11.216Z,8.77
2023-05-19T03:29:13.856Z,8.82
2023-05-19T03:30:16.629Z,8.88
2023-05-19T03:31:19.410Z,8.85
2023-05-19T03:32:22.151Z,8.86
2023-05-19T03:33:25.047Z,8.88
2023-05-19T03:34:27.785Z,8.89
2023-05-19T03:35:30.473Z,8.89
2023-05-19T03:36:33.147Z,8.88
2023-05-19T03:37:35.819Z,8.84
2023-05-19T03:38:38.559Z,8.79
2023-05-19T03:39:41.260Z,8.77
2023-05-19T03:40:44.570Z,8.73
2023-05-19T03:41:47.317Z,8.71
2023-05-19T03:42:49.968Z,8.70
2023-05-19T03:43:52.644Z,8.67
2023-05-19T03:44:55.285Z,8.65
2023-05-19T03:45:58.521Z,8.63
2023-05-19T03:47:01.416Z,8.59
2023-05-19T03:48:04.410Z,8.56
2023-05-19T03:49:07.169Z,8.51
2023-05-19T03:50:10.414Z,8.48
2023-05-19T03:51:13.147Z,8.46
2023-05-19T03:52:16.239Z,8.44
2023-05-19T03:53:18.930Z,8.40
2023-05-19T03:54:23.062Z,8.33
2023-05-19T03:55:26.300Z,8.31
2023-05-19T03:56:29.545Z,8.30
2023-05-19T03:57:32.756Z,8.30
2023-05-19T03:58:37.533Z,8.27
2023-05-19T03:59:41.841Z,8.28
2023-05-19T04:00:44.485Z,8.25
2023-05-19T04:01:47.122Z,8.24
2023-05-19T04:02:49.929Z,8.20
2023-05-19T04:03:52.709Z,8.18
2023-05-19T04:04:55.369Z,8.16
2023-05-19T04:05:58.081Z,8.12
2023-05-19T04:07:00.745Z,8.10
2023-05-19T04:08:03.443Z,8.08
2023-05-19T04:09:14.065Z,8.07
2023-05-19T04:10:16.817Z,8.06
2023-05-19T04:11:20.622Z,7.92
2023-05-19T04:12:23.268Z,7.91
2023-05-19T04:13:26.171Z,7.96
2023-05-19T04:14:29.039Z,8.01
2023-05-19T04:15:31.815Z,8.03
2023-05-19T04:16:34.882Z,8.04
2023-05-19T04:17:37.740Z,8.01
2023-05-19T04:18:40.444Z,8.00
2023-05-19T04:19:43.112Z,7.99
2023-05-19T04:20:45.854Z,7.99
2023-05-19T04:21:48.570Z,7.96
2023-05-19T04:22:51.300Z,7.95
2023-05-19T04:23:54.282Z,7.91
2023-05-19T04:24:56.962Z,7.91
2023-05-19T04:25:59.637Z,7.88
2023-05-19T04:27:04.051Z,7.87
2023-05-19T04:28:06.680Z,7.87
2023-05-19T04:29:11.153Z,7.83
2023-05-19T04:30:18.691Z,7.82
2023-05-19T04:31:22.204Z,7.79
2023-05-19T04:32:24.949Z,7.80
2023-05-19T04:33:29.719Z,7.77
2023-05-19T04:34:32.350Z,7.77
2023-05-19T04:35:35.137Z,7.78
2023-05-19T04:36:38.375Z,7.79
2023-05-19T04:37:41.070Z,7.78
2023-05-19T04:38:44.031Z,7.77
2023-05-19T04:39:46.955Z,7.77
2023-05-19T04:40:50.748Z,7.74
2023-05-19T04:41:55.666Z,7.73
2023-05-19T04:42:58.571Z,7.74
2023-05-19T04:44:01.643Z,7.73
2023-05-19T04:45:06.075Z,7.72
2023-05-19T04:46:13.429Z,7.70
2023-05-19T04:47:16.745Z,7.70
2023-05-19T04:48:19.808Z,7.68
2023-05-19T04:49:22.443Z,7.64
2023-05-19T04:50:25.773Z,7.66
2023-05-19T04:51:31.850Z,7.65
2023-05-19T04:52:34.893Z,7.64
2023-05-19T04:53:37.547Z,7.61
2023-05-19T04:54:40.759Z,7.59
2023-05-19T04:55:43.459Z,7.56
2023-05-19T04:56:46.245Z,7.54
2023-05-19T04:57:48.884Z,7.56
2023-05-19T04:58:51.630Z,7.53
2023-05-19T05:00:00.459Z,7.51
2023-05-19T05:01:03.132Z,7.49
2023-05-19T05:02:06.016Z,7.47
2023-05-19T05:03:08.801Z,7.47
2023-05-19T05:04:11.741Z,7.47
2023-05-19T05:05:14.499Z,7.46
2023-05-19T05:06:17.205Z,7.46
2023-05-19T05:07:19.887Z,7.42
2023-05-19T05:08:23.945Z,7.43
2023-05-19T05:09:26.805Z,7.43
2023-05-19T05:10:29.528Z,7.42
2023-05-19T05:11:32.404Z,7.41
2023-05-19T05:12:35.969Z,7.40
2023-05-19T05:13:38.891Z,7.39
2023-05-19T05:14:42.216Z,7.36
2023-05-19T05:15:45.191Z,7.36
2023-05-19T05:16:48.413Z,7.36
2023-05-19T05:17:51.736Z,7.36
2023-05-19T05:18:54.726Z,7.35
2023-05-19T05:19:57.694Z,7.35
2023-05-19T05:21:00.709Z,7.34
2023-05-19T05:22:03.935Z,7.33
2023-05-19T05:23:07.350Z,7.34
2023-05-19T05:24:10.916Z,7.31
2023-05-19T05:25:14.382Z,7.31
2023-05-19T05:26:25.305Z,7.30
2023-05-19T05:27:28.072Z,7.28
2023-05-19T05:28:31.958Z,7.28
2023-05-19T05:29:34.812Z,7.31
2023-05-19T05:30:37.515Z,7.33
2023-05-19T05:31:40.160Z,7.32
2023-05-19T05:32:43.070Z,7.32
2023-05-19T05:33:46.216Z,7.31
2023-05-19T05:34:48.904Z,7.32
2023-05-19T05:35:51.637Z,7.32
2023-05-19T05:36:54.291Z,7.31
2023-05-19T05:37:57.022Z,7.32
2023-05-19T05:39:00.131Z,7.34
2023-05-19T05:40:02.944Z,7.34
2023-05-19T05:41:05.726Z,7.34
2023-05-19T05:42:09.703Z,7.35
2023-05-19T05:43:12.334Z,7.35
2023-05-19T05:44:15.007Z,7.35
2023-05-19T05:45:17.743Z,7.34
2023-05-19T05:46:20.580Z,7.22
2023-05-19T05:47:23.523Z,7.22
2023-05-19T05:48:26.526Z,7.29
2023-05-19T05:49:29.484Z,7.34
2023-05-19T05:50:32.444Z,7.38
2023-05-19T05:51:35.422Z,7.39
2023-05-19T05:52:40.268Z,7.40
2023-05-19T05:53:45.059Z,7.38
2023-05-19T05:54:47.954Z,7.36
2023-05-19T05:55:51.593Z,7.34
2023-05-19T05:56:54.550Z,7.31
2023-05-19T05:57:57.539Z,7.29
2023-05-19T05:59:00.799Z,7.28
2023-05-19T06:00:06.426Z,7.28
2023-05-19T06:01:12.092Z,7.27
2023-05-19T06:02:14.847Z,7.25
2023-05-19T06:03:17.818Z,7.23
2023-05-19T06:04:21.574Z,7.21
2023-05-19T06:05:25.250Z,7.21
2023-05-19T06:06:27.709Z,7.20
2023-05-19T06:07:30.044Z,7.19
2023-05-19T06:08:32.837Z,7.17
2023-05-19T06:09:35.481Z,7.16
2023-05-19T06:10:39.497Z,7.15
2023-05-19T06:11:42.255Z,7.12
2023-05-19T06:12:44.911Z,7.11
2023-05-19T06:13:47.604Z,7.08
2023-05-19T06:14:50.283Z,7.06
2023-05-19T06:15:53.491Z,7.02
2023-05-19T06:16:56.328Z,7.01
2023-05-19T06:17:59.265Z,7.00
2023-05-19T06:19:02.106Z,6.97
2023-05-19T06:20:06.454Z,6.97
2023-05-19T06:21:10.809Z,6.95
2023-05-19T06:22:13.490Z,6.94
2023-05-19T06:23:16.202Z,6.93
2023-05-19T06:24:19.078Z,6.93
2023-05-19T06:25:21.714Z,6.92
2023-05-19T06:26:24.533Z,6.89
2023-05-19T06:27:27.258Z,6.87
2023-05-19T06:28:29.927Z,6.87
2023-05-19T06:29:32.628Z,6.85
2023-05-19T06:30:35.486Z,6.84
2023-05-19T06:31:38.281Z,6.84
2023-05-19T06:32:41.077Z,6.80
2023-05-19T06:33:43.849Z,6.76
2023-05-19T06:34:46.713Z,6.76
2023-05-19T06:35:49.442Z,6.71
2023-05-19T06:36:52.147Z,6.70
2023-05-19T06:37:56.327Z,6.68
2023-05-19T06:39:01.234Z,6.64
2023-05-19T06:40:06.274Z,6.66
2023-05-19T06:41:08.982Z,6.63
2023-05-19T06:42:11.645Z,6.63
2023-05-19T06:43:14.302Z,6.62
2023-05-19T06:44:17.120Z,6.62
2023-05-19T06:45:22.460Z,6.58
2023-05-19T06:46:25.263Z,6.55
2023-05-19T06:47:28.361Z,6.51
2023-05-19T06:48:31.318Z,6.49
2023-05-19T06:49:33.977Z,6.45
2023-05-19T06:50:36.732Z,6.45
2023-05-19T06:51:39.401Z,6.42
2023-05-19T06:52:42.131Z,6.39
2023-05-19T06:53:44.769Z,6.40
2023-05-19T06:54:47.436Z,6.34
2023-05-19T06:55:59.336Z,6.29
2023-05-19T06:57:02.768Z,6.26
2023-05-19T06:58:05.429Z,6.30
2023-05-19T06:59:08.086Z,6.30
2023-05-19T07:00:14.584Z,6.28
2023-05-19T07:01:19.778Z,6.26
2023-05-19T07:02:22.484Z,6.24
2023-05-19T07:03:25.242Z,6.24
2023-05-19T07:04:28.084Z,6.21
2023-05-19T07:05:30.720Z,6.21
2023-05-19T07:06:34.455Z,6.20
2023-05-19T07:07:36.817Z,6.16
2023-05-19T07:08:39.481Z,6.16
2023-05-19T07:09:42.193Z,6.16
2023-05-19T07:10:44.842Z,6.12
2023-05-19T07:11:47.531Z,6.12
2023-05-19T07:12:50.178Z,6.12
2023-05-19T07:13:52.809Z,6.12
2023-05-19T07:14:55.432Z,6.13
2023-05-19T07:15:58.141Z,6.12
2023-05-19T07:17:00.852Z,6.12
2023-05-19T07:18:03.589Z,6.11
2023-05-19T07:19:06.311Z,6.10
2023-05-19T07:20:12.684Z,6.11
2023-05-19T07:21:15.340Z,6.10
2023-05-19T07:22:18.094Z,6.11
2023-05-19T07:23:20.867Z,6.11
2023-05-19T07:24:23.729Z,6.13
2023-05-19T07:25:27.666Z,6.13
2023-05-19T07:26:30.529Z,6.11
2023-05-19T07:27:33.284Z,6.10
2023-05-19T07:28:36.206Z,6.10
2023-05-19T07:29:40.262Z,6.10
2023-05-19T07:30:43.028Z,6.09
2023-05-19T07:31:45.870Z,6.14
2023-05-19T07:32:48.635Z,6.13
2023-05-19T07:33:54.359Z,6.13
2023-05-19T07:34:57.335Z,6.13
2023-05-19T07:35:59.980Z,6.13
2023-05-19T07:37:05.182Z,6.14
2023-05-19T07:38:08.081Z,6.13
2023-05-19T07:39:11.371Z,6.16
2023-05-19T07:40:14.266Z,6.13
2023-05-19T07:41:16.916Z,6.14
2023-05-19T07:42:19.692Z,6.13
2023-05-19T07:43:22.391Z,6.16
2023-05-19T07:44:25.031Z,6.16
2023-05-19T07:45:27.719Z,6.18
2023-05-19T07:46:30.579Z,6.16
2023-05-19T07:47:33.448Z,6.18
2023-05-19T07:48:36.282Z,6.18
2023-05-19T07:49:38.914Z,6.20
2023-05-19T07:50:41.590Z,6.19
2023-05-19T07:51:44.349Z,6.19
2023-05-19T07:52:47.293Z,6.19
2023-05-19T07:53:49.998Z,6.16
2023-05-19T07:54:53.598Z,6.16
2023-05-19T07:55:58.398Z,6.13
2023-05-19T07:57:01.480Z,6.17
2023-05-19T07:58:04.121Z,6.18
2023-05-19T07:59:08.506Z,6.16
2023-05-19T08:00:13.042Z,6.14
2023-05-19T08:01:15.685Z,6.18
2023-05-19T08:02:18.428Z,6.20
2023-05-19T08:03:21.410Z,6.22
2023-05-19T08:04:24.239Z,6.21
2023-05-19T08:05:27.179Z,6.22
2023-05-19T08:06:30.629Z,6.20
2023-05-19T08:07:33.598Z,6.20
2023-05-19T08:08:36.236Z,6.18
2023-05-19T08:09:38.950Z,6.16
2023-05-19T08:10:41.558Z,6.16
2023-05-19T08:11:45.303Z,6.17
2023-05-19T08:12:47.997Z,6.13
2023-05-19T08:13:50.712Z,6.12
2023-05-19T08:14:53.426Z,6.14
2023-05-19T08:16:00.225Z,6.13
2023-05-19T08:17:03.022Z,6.14
2023-05-19T08:18:05.806Z,6.14
2023-05-19T08:19:09.040Z,6.11
2023-05-19T08:20:14.784Z,6.10
2023-05-19T08:21:17.450Z,6.10
2023-05-19T08:22:20.096Z,6.11
2023-05-19T08:23:23.138Z,6.10
2023-05-19T08:24:25.765Z,6.09
2023-05-19T08:25:28.511Z,6.11
2023-05-19T08:26:31.229Z,6.10
2023-05-19T08:27:34.056Z,6.07
2023-05-19T08:28:36.926Z,6.07
2023-05-19T08:29:39.550Z,6.09
2023-05-19T08:30:42.293Z,6.09
2023-05-19T08:31:45.031Z,6.07
2023-05-19T08:32:49.188Z,6.08
2023-05-19T08:33:51.954Z,6.10
2023-05-19T08:34:54.589Z,6.11
2023-05-19T08:35:58.696Z,6.10
2023-05-19T08:37:01.476Z,6.09
2023-05-19T08:38:04.151Z,6.09
2023-05-19T08:39:07.180Z,6.05
2023-05-19T08:40:16.764Z,6.07
2023-05-19T08:41:19.519Z,6.07
2023-05-19T08:42:22.176Z,6.07
2023-05-19T08:43:24.888Z,6.07
2023-05-19T08:44:27.683Z,6.03
2023-05-19T08:45:31.338Z,6.02
2023-05-19T08:46:34.376Z,6.03
2023-05-19T08:47:37.223Z,6.02
2023-05-19T08:48:43.726Z,6.05
2023-05-19T08:49:50.616Z,6.09
2023-05-19T08:51:10.793Z,6.08
2023-05-19T08:52:18.415Z,6.07
2023-05-19T08:53:33.811Z,6.10
2023-05-19T08:55:26.518Z,6.07
2023-05-19T08:56:29.261Z,6.09
2023-05-19T08:57:33.501Z,6.04
2023-05-19T08:58:36.562Z,6.04
2023-05-19T08:59:40.409Z,6.12
2023-05-19T09:00:44.861Z,6.12
2023-05-19T09:01:48.528Z,6.12
2023-05-19T09:03:01.030Z,6.11
2023-05-19T09:04:10.344Z,6.11
2023-05-19T09:05:13.323Z,5.99
2023-05-19T09:06:16.426Z,6.01
2023-05-19T09:07:20.554Z,6.05
2023-05-19T09:08:23.288Z,6.11
2023-05-19T09:09:26.174Z,6.09
2023-05-19T09:10:29.374Z,6.09
2023-05-19T09:11:32.044Z,6.09
2023-05-19T09:12:34.859Z,6.12
2023-05-19T09:13:37.771Z,6.11
2023-05-19T09:14:40.919Z,6.16
2023-05-19T09:15:46.259Z,6.14
2023-05-19T09:16:51.534Z,6.14
2023-05-19T09:18:08.612Z,6.15
2023-05-19T09:19:16.618Z,6.13
2023-05-19T09:20:19.366Z,6.13
2023-05-19T09:21:28.338Z,6.13
2023-05-19T09:22:31.087Z,6.16
2023-05-19T09:23:34.556Z,6.18
2023-05-19T09:24:38.428Z,6.18
2023-05-19T09:25:53.949Z,6.18
2023-05-19T09:26:59.241Z,6.18
2023-05-19T09:28:02.915Z,6.18
2023-05-19T09:29:16.616Z,6.18
2023-05-19T09:30:20.032Z,6.16
2023-05-19T09:31:23.072Z,6.19
2023-05-19T09:32:29.865Z,6.22
2023-05-19T09:33:35.398Z,6.21
2023-05-19T09:34:42.652Z,6.25
2023-05-19T09:35:48.487Z,6.22
2023-05-19T09:36:52.378Z,6.23
2023-05-19T09:37:55.929Z,6.24
2023-05-19T09:38:58.587Z,6.28
2023-05-19T09:40:01.388Z,6.27
2023-05-19T09:41:05.370Z,6.28
2023-05-19T09:42:08.110Z,6.30
2023-05-19T09:43:10.952Z,6.30
2023-05-19T09:44:30.344Z,6.27
2023-05-19T09:45:33.738Z,6.31
2023-05-19T09:46:37.348Z,6.33
2023-05-19T09:47:42.829Z,6.32
2023-05-19T09:48:45.520Z,6.34
2023-05-19T09:49:48.466Z,6.37
2023-05-19T09:50:52.377Z,6.36
2023-05-19T09:52:04.589Z,6.36
2023-05-19T09:53:07.759Z,6.39
2023-05-19T09:54:16.842Z,6.42
2023-05-19T09:55:23.570Z,6.41
2023-05-19T09:56:26.675Z,6.40
2023-05-19T09:57:36.531Z,6.43
2023-05-19T09:58:43.142Z,6.43
2023-05-19T09:59:46.588Z,6.47
2023-05-19T10:00:49.734Z,6.47
2023-05-19T10:01:56.558Z,6.51
2023-05-19T10:03:00.933Z,6.54
2023-05-19T10:04:06.027Z,6.51
2023-05-19T10:05:11.511Z,6.55
2023-05-19T10:06:16.252Z,6.58
2023-05-19T10:07:20.371Z,6.56
2023-05-19T10:08:24.638Z,6.54
2023-05-19T10:09:28.931Z,6.56
2023-05-19T10:10:31.872Z,6.56
2023-05-19T10:11:34.928Z,6.56
2023-05-19T10:12:39.954Z,6.59
2023-05-19T10:13:43.188Z,6.60
2023-05-19T10:14:46.242Z,6.61
2023-05-19T10:15:58.203Z,6.60
2023-05-19T10:17:01.853Z,6.63
2023-05-19T10:18:06.221Z,6.69
2023-05-19T10:19:11.104Z,6.70
2023-05-19T10:20:17.142Z,6.69
2023-05-19T10:21:19.822Z,6.72
2023-05-19T10:22:22.815Z,6.75
2023-05-19T10:23:25.762Z,6.76
2023-05-19T10:24:28.454Z,6.79
2023-05-19T10:25:34.306Z,6.79
2023-05-19T10:26:37.668Z,6.85
2023-05-19T10:27:50.557Z,6.86
2023-05-19T10:28:53.827Z,6.88
2023-05-19T10:29:59.958Z,6.89
2023-05-19T10:31:06.666Z,6.91
2023-05-19T10:32:16.237Z,6.92
2023-05-19T10:33:22.714Z,6.96
2023-05-19T10:34:52.293Z,6.98
2023-05-19T10:36:16.551Z,7.01
2023-05-19T10:37:29.306Z,7.03
2023-05-19T10:38:43.718Z,7.04
2023-05-19T10:39:49.282Z,7.06
2023-05-19T10:40:55.005Z,7.08
2023-05-19T10:42:25.087Z,7.14
2023-05-19T10:43:37.085Z,7.18
2023-05-19T10:45:10.906Z,7.17
2023-05-19T10:46:13.864Z,7.18
2023-05-19T10:47:26.834Z,7.22
2023-05-19T10:48:37.957Z,7.25
2023-05-19T10:49:41.274Z,7.25
2023-05-19T10:50:47.780Z,7.28
2023-05-19T10:51:52.450Z,7.29
2023-05-19T10:52:57.048Z,7.34
2023-05-19T10:54:03.321Z,7.38
2023-05-19T10:55:09.497Z,7.36
2023-05-19T10:56:12.985Z,7.36
2023-05-19T10:57:19.689Z,7.34
2023-05-19T10:58:50.706Z,7.41
2023-05-19T10:59:53.388Z,7.46
2023-05-19T11:01:02.061Z,7.50
2023-05-19T11:02:09.084Z,7.55
2023-05-19T11:03:19.286Z,7.55
2023-05-19T11:04:51.895Z,7.49
2023-05-19T11:06:14.610Z,7.49
2023-05-19T11:07:22.817Z,7.53
2023-05-19T11:08:35.654Z,7.53
2023-05-19T11:09:44.200Z,7.56
2023-05-19T11:10:46.998Z,7.63
2023-05-19T11:11:54.757Z,7.66
2023-05-19T11:13:00.604Z,7.75
2023-05-19T11:14:04.945Z,7.80
2023-05-19T11:15:10.689Z,7.81
2023-05-19T11:16:13.428Z,7.86
2023-05-19T11:17:16.892Z,7.84
2023-05-19T11:18:21.530Z,7.89
2023-05-19T11:19:35.914Z,7.94
2023-05-19T11:20:40.014Z,7.98
2023-05-19T11:21:47.785Z,8.04
2023-05-19T11:23:07.438Z,8.07
2023-05-19T11:24:11.025Z,8.10
2023-05-19T11:25:13.736Z,8.15
2023-05-19T11:26:16.552Z,8.17
2023-05-19T11:27:26.788Z,8.18
2023-05-19T11:28:31.476Z,8.23
2023-05-19T11:29:34.870Z,8.25
2023-05-19T11:30:37.957Z,8.29
2023-05-19T11:31:40.831Z,8.33
2023-05-19T11:32:44.918Z,8.40
2023-05-19T11:33:49.076Z,8.48
2023-05-19T11:34:52.237Z,8.55
2023-05-19T11:36:01.343Z,8.54
2023-05-19T11:37:04.847Z,8.56
2023-05-19T11:38:08.127Z,8.60
2023-05-19T11:39:12.092Z,8.62
2023-05-19T11:40:16.485Z,8.65
2023-05-19T11:41:20.769Z,8.70
2023-05-19T11:42:24.275Z,8.72
2023-05-19T11:43:27.324Z,8.79
2023-05-19T11:44:29.975Z,8.83
2023-05-19T11:45:33.743Z,8.86
2023-05-19T11:46:36.951Z,8.89
2023-05-19T11:47:56.471Z,8.93
2023-05-19T11:49:02.872Z,8.99
2023-05-19T11:50:05.797Z,9.05
2023-05-19T11:51:08.842Z,9.07
2023-05-19T11:52:11.810Z,9.13
2023-05-19T11:53:15.833Z,9.21
2023-05-19T11:54:19.789Z,9.25
2023-05-19T11:55:23.111Z,9.27
2023-05-19T11:56:25.794Z,9.31
2023-05-19T11:57:28.576Z,9.34
2023-05-19T11:58:31.669Z,9.36
2023-05-19T11:59:36.361Z,9.40
2023-05-19T12:00:43.941Z,9.44
2023-05-19T12:01:46.842Z,9.50
2023-05-19T12:02:49.641Z,9.53
2023-05-19T12:03:52.729Z,9.57
2023-05-19T12:04:56.148Z,9.58
2023-05-19T12:05:58.912Z,9.65
2023-05-19T12:07:01.625Z,9.67
2023-05-19T12:08:04.783Z,9.70
2023-05-19T12:09:08.335Z,9.76
2023-05-19T12:10:11.829Z,9.81
2023-05-19T12:11:15.191Z,9.87
2023-05-19T12:12:19.612Z,9.90
2023-05-19T12:13:23.424Z,9.94
2023-05-19T12:14:31.490Z,9.96
2023-05-19T12:15:34.386Z,9.97
2023-05-19T12:16:37.517Z,10.03
2023-05-19T12:17:40.523Z,10.06
2023-05-19T12:18:43.305Z,10.11
2023-05-19T12:19:47.633Z,10.14
2023-05-19T12:20:50.516Z,10.18
2023-05-19T12:21:54.265Z,10.24
2023-05-19T12:22:57.068Z,10.26
2023-05-19T12:24:00.789Z,10.29
2023-05-19T12:25:05.369Z,10.32
2023-05-19T12:26:08.817Z,10.39
2023-05-19T12:27:24.319Z,10.43
2023-05-19T12:28:30.238Z,10.50
2023-05-19T12:29:33.235Z,10.54
2023-05-19T12:30:36.144Z,10.57
2023-05-19T12:31:39.176Z,10.60
2023-05-19T12:32:41.968Z,10.64
2023-05-19T12:33:44.740Z,10.66
2023-05-19T12:34:48.007Z,10.69
2023-05-19T12:35:51.353Z,10.71
2023-05-19T12:36:54.074Z,10.75
2023-05-19T12:37:56.764Z,10.79
2023-05-19T12:38:59.731Z,10.85
2023-05-19T12:40:04.492Z,10.83
2023-05-19T12:41:07.631Z,10.87
2023-05-19T12:42:12.978Z,10.94
2023-05-19T12:43:23.105Z,10.97
2023-05-19T12:44:26.183Z,11.01
2023-05-19T12:45:29.194Z,11.07
2023-05-19T12:46:34.020Z,11.09
2023-05-19T12:47:37.370Z,11.12
2023-05-19T12:48:44.928Z,11.17
2023-05-19T12:49:57.666Z,11.22
2023-05-19T12:51:00.428Z,11.27
2023-05-19T12:52:11.909Z,11.31
2023-05-19T12:53:16.742Z,11.37
2023-05-19T12:54:22.579Z,11.43
2023-05-19T12:55:26.075Z,11.45
2023-05-19T12:56:28.806Z,11.48
2023-05-19T12:57:34.287Z,11.51
2023-05-19T12:58:38.051Z,11.57
2023-05-19T12:59:43.233Z,11.62
2023-05-19T13:00:50.989Z,11.65
2023-05-19T13:01:59.921Z,11.70
2023-05-19T13:03:07.697Z,11.73
2023-05-19T13:04:10.775Z,11.79
2023-05-19T13:05:14.196Z,11.82
2023-05-19T13:06:16.927Z,11.87
2023-05-19T13:07:21.256Z,11.93
2023-05-19T13:08:25.285Z,11.97
2023-05-19T13:09:28.416Z,12.02
2023-05-19T13:10:32.184Z,12.05
2023-05-19T13:11:35.659Z,12.09
2023-05-19T13:12:38.302Z,12.16
2023-05-19T13:13:41.016Z,12.21
2023-05-19T13:14:44.196Z,12.24
2023-05-19T13:15:49.394Z,12.28
2023-05-19T13:16:52.164Z,12.35
2023-05-19T13:17:55.801Z,12.41
2023-05-19T13:18:58.918Z,12.41
2023-05-19T13:20:01.803Z,12.43
2023-05-19T13:21:04.832Z,12.46
2023-05-19T13:22:07.586Z,12.48
2023-05-19T13:23:14.730Z,12.53
2023-05-19T13:24:17.613Z,12.57
2023-05-19T13:25:20.324Z,12.61
2023-05-19T13:26:24.038Z,12.65
2023-05-19T13:27:26.794Z,12.68
2023-05-19T13:28:29.962Z,12.69
2023-05-19T13:29:32.641Z,12.73
2023-05-19T13:30:37.040Z,12.75
2023-05-19T13:31:39.936Z,12.80
2023-05-19T13:32:43.058Z,12.84
2023-05-19T13:33:45.803Z,12.90
2023-05-19T13:34:48.549Z,12.95
2023-05-19T13:35:51.199Z,12.95
2023-05-19T13:36:53.930Z,12.97
2023-05-19T13:37:56.798Z,12.96
2023-05-19T13:38:59.549Z,12.98
2023-05-19T13:40:02.556Z,12.98
2023-05-19T13:41:05.211Z,13.01
2023-05-19T13:42:07.892Z,13.03
2023-05-19T13:43:10.643Z,13.08
2023-05-19T13:44:13.271Z,13.11
2023-05-19T13:45:16.135Z,13.17
2023-05-19T13:46:22.148Z,13.21
2023-05-19T13:47:29.472Z,13.26
2023-05-19T13:48:32.248Z,13.30
2023-05-19T13:49:34.958Z,13.35
2023-05-19T13:50:37.654Z,13.36
2023-05-19T13:51:43.239Z,13.38
2023-05-19T13:52:45.937Z,13.38
2023-05-19T13:53:48.628Z,13.41
2023-05-19T13:54:51.435Z,13.42
2023-05-19T13:55:55.692Z,13.44
2023-05-19T13:56:58.916Z,13.49
2023-05-19T13:58:01.700Z,13.52
2023-05-19T13:59:04.542Z,13.57
2023-05-19T14:00:07.911Z,13.61
2023-05-19T14:01:10.766Z,13.65
2023-05-19T14:02:13.606Z,13.67
2023-05-19T14:03:20.032Z,13.70
2023-05-19T14:04:24.248Z,13.69
2023-05-19T14:05:28.870Z,13.70
2023-05-19T14:06:31.837Z,13.72
2023-05-19T14:07:35.735Z,13.76
2023-05-19T14:08:38.717Z,13.79
2023-05-19T14:09:41.440Z,13.79
2023-05-19T14:10:44.102Z,13.82
2023-05-19T14:11:47.504Z,13.85
2023-05-19T14:13:18.391Z,13.85